Montevideo, MN

1:05 AM CST on February 14, 2016 (GMT -0600)
Montevideo-Chippewa County

Weather History for KMVE - November, 2013

Change the Weather History Date:

Wednesday, November 20, 2013

  Actual Average Record
Temperature  
Mean Temperature 40 °F -  
Max Temperature 51 °F 36 °F 67 °F (1962)
Min Temperature 28 °F 20 °F -5 °F (1978)
Degree Days  
Heating Degree Days 26    
Moisture  
Dew Point 31 °F    
Average Humidity 64    
Maximum Humidity 93    
Minimum Humidity 50    
Precipitation  
Precipitation 0.00 in - - ()
Sea Level Pressure  
Sea Level Pressure 29.84 in    
Wind  
Wind Speed 12 mph (SSW)    
Max Wind Speed 20 mph    
Max Gust Speed 28 mph    
Visibility 10 miles    
Events      
Averages and records for this station are not official NWS values.
T = Trace of Precipitation, MM = Missing Value Source: NWS Daily Summary

Daily Weather History Graph

Daily Weather History Graph

Search for Another Location

Airport or City:

Trip Planner

Search our weather history database for the weather conditions in past years. The results will help you decide how hot, cold, wet, or windy it might be!

Date:

Astronomy

Nov. 20, 2013 Rise Set
Actual Time 7:27 AM CST 4:49 PM CST
Civil Twilight 6:55 AM CST 5:21 PM CST
Nautical Twilight 6:19 AM CST 5:57 PM CST
Astronomical Twilight 5:44 AM CST 6:32 PM CST
Moon 7:33 PM CST (11/20) 9:53 AM CST (11/20)
Length of Visible Light 10h 26m
Length of Day
9h 21m
Waning Gibbous, 91% of the Moon is Illuminated
Nov 20
Waning Gibbous
Nov 25
Last Quarter
Dec 2
New
Dec 9
First Quarter
Dec 17
Full

Hourly Weather History & Observations

Time (CST) Temp. Windchill Dew Point Humidity Pressure Visibility Wind Dir Wind Speed Gust Speed Precip Events Conditions
12:14 AM 48.2 °F - 30.2 °F 50% 29.73 in 10.0 mi SSW 19.6 mph 25.3 mph N/A   Clear
12:34 AM 48.2 °F - 30.2 °F 50% 29.74 in 10.0 mi SSW 17.3 mph 26.5 mph N/A   Clear
12:54 AM 48.2 °F - 30.2 °F 50% 29.74 in 10.0 mi SSW 15.0 mph 24.2 mph N/A   Clear
1:14 AM 48.2 °F - 30.2 °F 50% 29.73 in 10.0 mi SSW 18.4 mph 25.3 mph N/A   Clear
1:34 AM 48.2 °F - 30.2 °F 50% 29.74 in 10.0 mi SSW 16.1 mph 25.3 mph N/A   Clear
1:54 AM 46.4 °F 40.1 °F 30.2 °F 53% 29.74 in 10.0 mi SSW 15.0 mph 24.2 mph N/A   Clear
2:14 AM 46.4 °F 40.7 °F 30.2 °F 53% 29.74 in 10.0 mi SSW 12.7 mph 23.0 mph N/A   Clear
2:34 AM 46.4 °F 40.4 °F 30.2 °F 53% 29.75 in 10.0 mi SSW 13.8 mph 21.9 mph N/A   Clear
2:54 AM 46.4 °F 41.1 °F 30.2 °F 53% 29.76 in 10.0 mi SSW 11.5 mph 17.3 mph N/A   Clear
3:14 AM 46.4 °F 40.7 °F 30.2 °F 53% 29.76 in 10.0 mi SSW 12.7 mph 17.3 mph N/A   Clear
3:34 AM 46.4 °F 41.5 °F 30.2 °F 53% 29.76 in 10.0 mi SSW 10.4 mph 18.4 mph N/A   Clear
3:54 AM 44.6 °F 39.2 °F 30.2 °F 57% 29.76 in 10.0 mi South 10.4 mph - N/A   Clear
4:14 AM 44.6 °F 39.7 °F 30.2 °F 57% 29.76 in 10.0 mi SSW 9.2 mph - N/A   Clear
4:34 AM 44.6 °F 39.2 °F 30.2 °F 57% 29.76 in 10.0 mi South 10.4 mph - N/A   Clear
4:54 AM 44.6 °F 40.2 °F 30.2 °F 57% 29.76 in 10.0 mi South 8.1 mph - N/A   Clear
5:14 AM 42.8 °F 37.5 °F 30.2 °F 61% 29.76 in 10.0 mi South 9.2 mph - N/A   Clear
5:34 AM 42.8 °F 38.0 °F 30.2 °F 61% 29.76 in 10.0 mi South 8.1 mph - N/A   Clear
5:54 AM 42.8 °F 37.0 °F 30.2 °F 61% 29.76 in 10.0 mi South 10.4 mph - N/A   Clear
6:14 AM 42.8 °F 37.5 °F 30.2 °F 61% 29.77 in 10.0 mi South 9.2 mph - N/A   Clear
6:34 AM 42.8 °F 37.5 °F 30.2 °F 61% 29.77 in 10.0 mi South 9.2 mph - N/A   Clear
6:54 AM 41.0 °F 35.8 °F 30.2 °F 65% 29.78 in 10.0 mi South 8.1 mph - N/A   Clear
7:14 AM 41.0 °F 37.1 °F 30.2 °F 65% 29.79 in 10.0 mi South 5.8 mph - N/A   Clear
7:34 AM 41.0 °F 36.4 °F 30.2 °F 65% 29.79 in 10.0 mi South 6.9 mph - N/A   Clear
7:54 AM 41.0 °F 35.2 °F 30.2 °F 65% 29.80 in 10.0 mi South 9.2 mph - N/A   Clear
8:14 AM 41.0 °F 35.2 °F 30.2 °F 65% 29.80 in 10.0 mi South 9.2 mph - N/A   Clear
8:34 AM 42.8 °F 37.0 °F 30.2 °F 61% 29.81 in 10.0 mi South 10.4 mph - N/A   Clear
8:54 AM 42.8 °F 37.5 °F 30.2 °F 61% 29.81 in 10.0 mi SSW 9.2 mph - N/A   Clear
9:14 AM 42.8 °F 37.5 °F 30.2 °F 61% 29.82 in 10.0 mi SSW 9.2 mph - N/A   Clear
9:34 AM 42.8 °F 37.0 °F 30.2 °F 61% 29.82 in 10.0 mi SSW 10.4 mph - N/A   Clear
9:54 AM 44.6 °F 40.2 °F 30.2 °F 57% 29.82 in 10.0 mi SSW 8.1 mph - N/A   Clear
10:14 AM 44.6 °F 39.7 °F 30.2 °F 57% 29.83 in 10.0 mi SSW 9.2 mph - N/A   Clear
10:34 AM 44.6 °F 40.2 °F 30.2 °F 57% 29.83 in 10.0 mi SSW 8.1 mph - N/A   Clear
10:54 AM 46.4 °F 42.4 °F 30.2 °F 53% 29.83 in 10.0 mi SSW 8.1 mph - N/A   Clear
11:14 AM 46.4 °F 41.5 °F 32.0 °F 57% 29.83 in 10.0 mi SW 10.4 mph - N/A   Clear
11:34 AM 46.4 °F 42.4 °F 32.0 °F 57% 29.83 in 10.0 mi SSW 8.1 mph - N/A   Clear
11:54 AM 46.4 °F 42.9 °F 32.0 °F 57% 29.83 in 10.0 mi SSW 6.9 mph - N/A   Clear
12:14 PM 48.2 °F - 33.8 °F 58% 29.82 in 10.0 mi SW 8.1 mph - N/A   Clear
12:34 PM 48.2 °F - 33.8 °F 58% 29.82 in 10.0 mi SSW 8.1 mph - N/A   Clear
12:54 PM 48.2 °F - 33.8 °F 58% 29.81 in 10.0 mi South 8.1 mph - N/A   Clear
1:14 PM 50.0 °F - 33.8 °F 54% 29.81 in 10.0 mi SSW 8.1 mph - N/A   Clear
1:34 PM 51.8 °F - 33.8 °F 50% 29.81 in 10.0 mi SSW 9.2 mph - N/A   Clear
1:54 PM 51.8 °F - 33.8 °F 50% 29.80 in 10.0 mi SW 6.9 mph - N/A   Clear
2:14 PM 51.8 °F - 33.8 °F 50% 29.80 in 10.0 mi SSW 8.1 mph - N/A   Clear
2:34 PM 51.8 °F - 33.8 °F 50% 29.81 in 10.0 mi WSW 5.8 mph - N/A   Clear
2:54 PM 50.0 °F - 33.8 °F 54% 29.81 in 10.0 mi SSW 8.1 mph - N/A   Clear
3:14 PM 50.0 °F - 33.8 °F 54% 29.82 in 10.0 mi South 4.6 mph - N/A   Clear
3:34 PM 50.0 °F - 33.8 °F 54% 29.81 in 10.0 mi South 5.8 mph - N/A   Clear
3:54 PM 50.0 °F - 33.8 °F 54% 29.82 in 10.0 mi South 4.6 mph - N/A   Clear
4:14 PM 48.2 °F - 33.8 °F 58% 29.83 in 10.0 mi South 5.8 mph - N/A   Clear
4:34 PM 46.4 °F 43.5 °F 33.8 °F 62% 29.83 in 10.0 mi South 5.8 mph - N/A   Clear
4:54 PM 46.4 °F 43.5 °F 33.8 °F 62% 29.84 in 10.0 mi South 5.8 mph - N/A   Clear
5:14 PM 46.4 °F 44.3 °F 33.8 °F 62% 29.85 in 10.0 mi South 4.6 mph - N/A   Clear
5:34 PM 42.8 °F 39.3 °F 32.0 °F 66% 29.86 in 10.0 mi NNW 5.8 mph - N/A   Clear
5:54 PM 41.0 °F 35.8 °F 32.0 °F 70% 29.88 in 10.0 mi NNW 8.1 mph - N/A   Clear
6:14 PM 39.2 °F 33.6 °F 32.0 °F 75% 29.89 in 10.0 mi North 8.1 mph - N/A   Clear
6:34 PM 37.4 °F 32.8 °F 30.2 °F 75% 29.91 in 10.0 mi North 5.8 mph - N/A   Clear
6:54 PM 37.4 °F 31.4 °F 30.2 °F 75% 29.92 in 10.0 mi NNW 8.1 mph - N/A   Clear
7:14 PM 35.6 °F 29.2 °F 30.2 °F 81% 29.93 in 10.0 mi NNW 8.1 mph - N/A   Clear
7:34 PM 33.8 °F 28.6 °F 30.2 °F 87% 29.94 in 10.0 mi North 5.8 mph 9.2 mph N/A   Clear
7:54 PM 33.8 °F 27.0 °F 30.2 °F 87% 29.94 in 10.0 mi North 8.1 mph - N/A   Clear
8:14 PM 32.0 °F 23.6 °F 28.4 °F 87% 29.95 in 10.0 mi North 10.4 mph - N/A   Clear
8:34 PM 30.2 °F 21.3 °F 28.4 °F 93% 29.96 in 10.0 mi North 10.4 mph - N/A   Clear
8:54 PM 30.2 °F 21.9 °F 26.6 °F 86% 29.98 in 10.0 mi North 9.2 mph - N/A   Clear
9:14 PM 28.4 °F 19.1 °F 26.6 °F 93% 29.99 in 10.0 mi North 10.4 mph - N/A   Clear
9:34 PM 28.4 °F 18.5 °F 26.6 °F 93% 30.00 in 10.0 mi North 11.5 mph - N/A   Clear
9:54 PM 28.4 °F 18.5 °F 26.6 °F 93% 30.01 in 7.0 mi North 11.5 mph - N/A   Clear
10:14 PM 28.4 °F 18.5 °F 26.6 °F 93% 30.03 in 7.0 mi North 11.5 mph - N/A   Mostly Cloudy
10:34 PM 30.2 °F 19.3 °F 26.6 °F 86% 30.04 in 10.0 mi North 15.0 mph 23.0 mph N/A   Overcast
10:54 PM 30.2 °F 19.3 °F 26.6 °F 86% 30.04 in 10.0 mi North 15.0 mph 21.9 mph N/A   Overcast
11:14 PM 28.4 °F 17.5 °F 26.6 °F 93% 30.06 in 10.0 mi North 13.8 mph 23.0 mph N/A   Overcast
11:34 PM 28.4 °F 15.8 °F 24.8 °F 86% 30.06 in 10.0 mi North 18.4 mph - N/A   Overcast
11:54 PM 28.4 °F 15.8 °F 24.8 °F 86% 30.07 in 10.0 mi North 18.4 mph 27.6 mph N/A   Overcast